sensor_id;sensor_type;location;lat;lon;timestamp;P1;durP1;ratioP1;P2;durP2;ratioP2
3085;SDS011;52812;48.960;9.108;2023-03-31T00:01:38;3.53;;;2.10;;
3085;SDS011;52812;48.960;9.108;2023-03-31T00:04:10;2.93;;;2.20;;
3085;SDS011;52812;48.960;9.108;2023-03-31T00:06:37;3.80;;;2.27;;
3085;SDS011;52812;48.960;9.108;2023-03-31T00:11:36;4.87;;;2.27;;
3085;SDS011;52812;48.960;9.108;2023-03-31T00:14:03;2.70;;;1.90;;
3085;SDS011;52812;48.960;9.108;2023-03-31T00:16:31;5.00;;;2.53;;
3085;SDS011;52812;48.960;9.108;2023-03-31T00:18:57;2.33;;;2.10;;
3085;SDS011;52812;48.960;9.108;2023-03-31T00:21:26;3.40;;;2.40;;
3085;SDS011;52812;48.960;9.108;2023-03-31T00:23:59;4.80;;;2.73;;
3085;SDS011;52812;48.960;9.108;2023-03-31T00:26:27;3.70;;;2.30;;
3085;SDS011;52812;48.960;9.108;2023-03-31T00:28:53;4.87;;;2.50;;
3085;SDS011;52812;48.960;9.108;2023-03-31T00:31:19;3.07;;;1.90;;
3085;SDS011;52812;48.960;9.108;2023-03-31T00:34:01;5.20;;;2.60;;
3085;SDS011;52812;48.960;9.108;2023-03-31T00:36:26;3.53;;;2.43;;
3085;SDS011;52812;48.960;9.108;2023-03-31T00:38:53;6.10;;;2.50;;
3085;SDS011;52812;48.960;9.108;2023-03-31T00:41:20;5.80;;;2.47;;
3085;SDS011;52812;48.960;9.108;2023-03-31T00:46:51;5.03;;;2.27;;
3085;SDS011;52812;48.960;9.108;2023-03-31T00:49:30;2.83;;;1.93;;
3085;SDS011;52812;48.960;9.108;2023-03-31T00:52:06;3.50;;;2.33;;
3085;SDS011;52812;48.960;9.108;2023-03-31T00:54:40;7.80;;;2.50;;
3085;SDS011;52812;48.960;9.108;2023-03-31T00:57:09;5.20;;;2.33;;
3085;SDS011;52812;48.960;9.108;2023-03-31T00:59:37;6.67;;;2.53;;
3085;SDS011;52812;48.960;9.108;2023-03-31T01:02:06;4.03;;;2.70;;
3085;SDS011;52812;48.960;9.108;2023-03-31T01:04:52;4.77;;;2.70;;
3085;SDS011;52812;48.960;9.108;2023-03-31T01:10:01;2.90;;;2.30;;
3085;SDS011;52812;48.960;9.108;2023-03-31T01:12:29;4.57;;;2.73;;
3085;SDS011;52812;48.960;9.108;2023-03-31T01:14:58;4.70;;;2.13;;
3085;SDS011;52812;48.960;9.108;2023-03-31T01:17:25;4.73;;;2.93;;
3085;SDS011;52812;48.960;9.108;2023-03-31T01:27:55;5.67;;;2.20;;
3085;SDS011;52812;48.960;9.108;2023-03-31T01:33:18;4.47;;;1.90;;
3085;SDS011;52812;48.960;9.108;2023-03-31T01:44:32;5.60;;;2.10;;
3085;SDS011;52812;48.960;9.108;2023-03-31T01:47:06;3.97;;;1.80;;
3085;SDS011;52812;48.960;9.108;2023-03-31T01:49:40;4.97;;;2.13;;
3085;SDS011;52812;48.960;9.108;2023-03-31T01:52:22;3.83;;;1.80;;
3085;SDS011;52812;48.960;9.108;2023-03-31T01:55:06;2.90;;;2.00;;
3085;SDS011;52812;48.960;9.108;2023-03-31T01:57:38;5.33;;;2.27;;
3085;SDS011;52812;48.960;9.108;2023-03-31T02:00:14;3.10;;;1.70;;
3085;SDS011;52812;48.960;9.108;2023-03-31T02:02:46;6.03;;;2.10;;
3085;SDS011;52812;48.960;9.108;2023-03-31T02:05:27;4.40;;;1.93;;
3085;SDS011;52812;48.960;9.108;2023-03-31T02:07:59;2.13;;;1.90;;
3085;SDS011;52812;48.960;9.108;2023-03-31T02:10:33;4.70;;;2.10;;
3085;SDS011;52812;48.960;9.108;2023-03-31T02:13:00;5.07;;;2.10;;
3085;SDS011;52812;48.960;9.108;2023-03-31T02:15:29;2.33;;;2.00;;
3085;SDS011;52812;48.960;9.108;2023-03-31T02:17:59;2.60;;;1.70;;
3085;SDS011;52812;48.960;9.108;2023-03-31T02:20:30;3.60;;;1.90;;
3085;SDS011;52812;48.960;9.108;2023-03-31T02:22:57;3.47;;;1.80;;
3085;SDS011;52812;48.960;9.108;2023-03-31T02:25:27;3.30;;;2.03;;
3085;SDS011;52812;48.960;9.108;2023-03-31T02:27:59;3.00;;;1.90;;
3085;SDS011;52812;48.960;9.108;2023-03-31T02:30:41;5.17;;;2.30;;
3085;SDS011;52812;48.960;9.108;2023-03-31T02:33:27;5.17;;;1.87;;
3085;SDS011;52812;48.960;9.108;2023-03-31T02:35:52;3.20;;;1.77;;
3085;SDS011;52812;48.960;9.108;2023-03-31T02:38:18;4.10;;;1.80;;
3085;SDS011;52812;48.960;9.108;2023-03-31T02:40:44;3.37;;;1.63;;
3085;SDS011;52812;48.960;9.108;2023-03-31T02:43:10;3.67;;;1.90;;
3085;SDS011;52812;48.960;9.108;2023-03-31T02:48:10;3.47;;;1.50;;
3085;SDS011;52812;48.960;9.108;2023-03-31T02:58:48;3.57;;;1.63;;
3085;SDS011;52812;48.960;9.108;2023-03-31T03:07:00;4.40;;;1.90;;
3085;SDS011;52812;48.960;9.108;2023-03-31T03:09:54;3.70;;;1.73;;
3085;SDS011;52812;48.960;9.108;2023-03-31T03:12:52;2.90;;;1.80;;
3085;SDS011;52812;48.960;9.108;2023-03-31T03:15:27;4.80;;;2.30;;
3085;SDS011;52812;48.960;9.108;2023-03-31T03:17:58;4.10;;;2.00;;
3085;SDS011;52812;48.960;9.108;2023-03-31T03:20:24;3.47;;;1.90;;
3085;SDS011;52812;48.960;9.108;2023-03-31T03:22:50;5.23;;;2.10;;
3085;SDS011;52812;48.960;9.108;2023-03-31T03:25:16;4.27;;;2.33;;
3085;SDS011;52812;48.960;9.108;2023-03-31T03:27:44;3.03;;;2.07;;
3085;SDS011;52812;48.960;9.108;2023-03-31T03:30:11;3.93;;;2.17;;
3085;SDS011;52812;48.960;9.108;2023-03-31T03:32:37;5.17;;;2.50;;
3085;SDS011;52812;48.960;9.108;2023-03-31T03:35:03;2.70;;;1.80;;
3085;SDS011;52812;48.960;9.108;2023-03-31T03:37:30;3.07;;;1.90;;
3085;SDS011;52812;48.960;9.108;2023-03-31T03:39:56;2.97;;;1.93;;
3085;SDS011;52812;48.960;9.108;2023-03-31T03:42:22;4.50;;;2.00;;
3085;SDS011;52812;48.960;9.108;2023-03-31T03:44:48;5.27;;;2.27;;
3085;SDS011;52812;48.960;9.108;2023-03-31T03:47:13;4.20;;;2.00;;
3085;SDS011;52812;48.960;9.108;2023-03-31T03:49:39;3.00;;;2.40;;
3085;SDS011;52812;48.960;9.108;2023-03-31T03:52:05;2.80;;;2.20;;
3085;SDS011;52812;48.960;9.108;2023-03-31T03:54:31;7.10;;;2.60;;
3085;SDS011;52812;48.960;9.108;2023-03-31T03:56:57;4.10;;;2.40;;
3085;SDS011;52812;48.960;9.108;2023-03-31T03:59:22;4.63;;;2.17;;
3085;SDS011;52812;48.960;9.108;2023-03-31T04:01:48;3.67;;;2.40;;
3085;SDS011;52812;48.960;9.108;2023-03-31T04:04:14;3.80;;;2.70;;
3085;SDS011;52812;48.960;9.108;2023-03-31T04:06:40;4.57;;;2.60;;
3085;SDS011;52812;48.960;9.108;2023-03-31T04:09:06;5.83;;;3.10;;
3085;SDS011;52812;48.960;9.108;2023-03-31T04:11:32;4.13;;;2.67;;
3085;SDS011;52812;48.960;9.108;2023-03-31T04:13:57;4.43;;;2.70;;
3085;SDS011;52812;48.960;9.108;2023-03-31T04:16:23;2.77;;;2.20;;
3085;SDS011;52812;48.960;9.108;2023-03-31T04:18:49;5.70;;;2.60;;
3085;SDS011;52812;48.960;9.108;2023-03-31T04:21:17;4.63;;;2.53;;
3085;SDS011;52812;48.960;9.108;2023-03-31T04:23:49;4.43;;;2.87;;
3085;SDS011;52812;48.960;9.108;2023-03-31T04:26:22;5.60;;;2.80;;
3085;SDS011;52812;48.960;9.108;2023-03-31T04:28:55;6.83;;;2.70;;
3085;SDS011;52812;48.960;9.108;2023-03-31T04:31:25;5.33;;;2.70;;
3085;SDS011;52812;48.960;9.108;2023-03-31T04:33:54;4.07;;;2.50;;
3085;SDS011;52812;48.960;9.108;2023-03-31T04:36:20;4.70;;;3.00;;
3085;SDS011;52812;48.960;9.108;2023-03-31T04:38:47;5.30;;;3.17;;
3085;SDS011;52812;48.960;9.108;2023-03-31T04:41:18;4.57;;;2.70;;
3085;SDS011;52812;48.960;9.108;2023-03-31T04:43:45;2.70;;;2.40;;
3085;SDS011;52812;48.960;9.108;2023-03-31T04:46:11;3.90;;;2.70;;
3085;SDS011;52812;48.960;9.108;2023-03-31T04:48:37;5.47;;;3.40;;
3085;SDS011;52812;48.960;9.108;2023-03-31T04:51:03;7.43;;;3.03;;
3085;SDS011;52812;48.960;9.108;2023-03-31T04:53:29;4.20;;;3.03;;
3085;SDS011;52812;48.960;9.108;2023-03-31T04:55:55;4.43;;;3.03;;
3085;SDS011;52812;48.960;9.108;2023-03-31T04:58:21;5.33;;;2.93;;
3085;SDS011;52812;48.960;9.108;2023-03-31T05:00:47;3.30;;;2.60;;
3085;SDS011;52812;48.960;9.108;2023-03-31T05:03:13;4.67;;;3.13;;
3085;SDS011;52812;48.960;9.108;2023-03-31T05:05:38;3.90;;;3.10;;
3085;SDS011;52812;48.960;9.108;2023-03-31T05:08:04;5.83;;;3.40;;
3085;SDS011;52812;48.960;9.108;2023-03-31T05:10:30;4.30;;;3.10;;
3085;SDS011;52812;48.960;9.108;2023-03-31T05:12:55;5.70;;;3.63;;
3085;SDS011;52812;48.960;9.108;2023-03-31T05:15:22;5.70;;;3.50;;
3085;SDS011;52812;48.960;9.108;2023-03-31T05:17:51;4.40;;;3.70;;
3085;SDS011;52812;48.960;9.108;2023-03-31T05:20:17;7.23;;;3.30;;
3085;SDS011;52812;48.960;9.108;2023-03-31T05:22:44;5.63;;;3.43;;
3085;SDS011;52812;48.960;9.108;2023-03-31T05:25:10;5.80;;;3.60;;
3085;SDS011;52812;48.960;9.108;2023-03-31T05:27:43;3.90;;;3.20;;
3085;SDS011;52812;48.960;9.108;2023-03-31T05:30:15;7.00;;;3.60;;
3085;SDS011;52812;48.960;9.108;2023-03-31T05:32:42;6.93;;;3.40;;
3085;SDS011;52812;48.960;9.108;2023-03-31T05:35:08;8.27;;;4.57;;
3085;SDS011;52812;48.960;9.108;2023-03-31T05:37:35;6.33;;;3.70;;
3085;SDS011;52812;48.960;9.108;2023-03-31T05:40:02;6.70;;;3.53;;
3085;SDS011;52812;48.960;9.108;2023-03-31T05:42:32;6.07;;;3.70;;
3085;SDS011;52812;48.960;9.108;2023-03-31T05:44:57;7.97;;;4.10;;
3085;SDS011;52812;48.960;9.108;2023-03-31T05:47:23;6.40;;;4.20;;
3085;SDS011;52812;48.960;9.108;2023-03-31T05:49:49;8.27;;;4.37;;
3085;SDS011;52812;48.960;9.108;2023-03-31T05:52:14;5.47;;;4.23;;
3085;SDS011;52812;48.960;9.108;2023-03-31T05:54:40;8.50;;;4.60;;
3085;SDS011;52812;48.960;9.108;2023-03-31T05:57:06;8.80;;;4.60;;
3085;SDS011;52812;48.960;9.108;2023-03-31T05:59:33;7.00;;;4.70;;
3085;SDS011;52812;48.960;9.108;2023-03-31T06:02:00;9.33;;;4.80;;
3085;SDS011;52812;48.960;9.108;2023-03-31T06:04:26;8.17;;;5.10;;
3085;SDS011;52812;48.960;9.108;2023-03-31T06:06:52;10.40;;;4.90;;
3085;SDS011;52812;48.960;9.108;2023-03-31T06:09:20;7.10;;;4.67;;
3085;SDS011;52812;48.960;9.108;2023-03-31T06:11:45;9.70;;;4.90;;
3085;SDS011;52812;48.960;9.108;2023-03-31T06:14:11;7.40;;;5.27;;
3085;SDS011;52812;48.960;9.108;2023-03-31T06:16:37;8.20;;;5.27;;
3085;SDS011;52812;48.960;9.108;2023-03-31T06:19:03;10.33;;;4.97;;
3085;SDS011;52812;48.960;9.108;2023-03-31T06:21:29;8.73;;;4.80;;
3085;SDS011;52812;48.960;9.108;2023-03-31T06:23:55;9.77;;;6.43;;
3085;SDS011;52812;48.960;9.108;2023-03-31T06:26:22;8.00;;;5.00;;
3085;SDS011;52812;48.960;9.108;2023-03-31T06:28:48;7.87;;;4.77;;
3085;SDS011;52812;48.960;9.108;2023-03-31T06:31:18;11.90;;;5.07;;
3085;SDS011;52812;48.960;9.108;2023-03-31T06:33:46;14.17;;;5.13;;
3085;SDS011;52812;48.960;9.108;2023-03-31T06:36:13;10.03;;;5.90;;
3085;SDS011;52812;48.960;9.108;2023-03-31T06:38:40;7.10;;;4.93;;
3085;SDS011;52812;48.960;9.108;2023-03-31T06:41:06;10.37;;;5.60;;
3085;SDS011;52812;48.960;9.108;2023-03-31T06:43:33;9.67;;;5.40;;
3085;SDS011;52812;48.960;9.108;2023-03-31T06:45:59;12.37;;;5.97;;
3085;SDS011;52812;48.960;9.108;2023-03-31T06:48:25;14.07;;;9.23;;
3085;SDS011;52812;48.960;9.108;2023-03-31T06:50:54;15.13;;;9.40;;
3085;SDS011;52812;48.960;9.108;2023-03-31T06:53:22;15.33;;;9.40;;
3085;SDS011;52812;48.960;9.108;2023-03-31T06:55:48;17.37;;;9.77;;
3085;SDS011;52812;48.960;9.108;2023-03-31T06:58:14;11.63;;;7.23;;
3085;SDS011;52812;48.960;9.108;2023-03-31T07:00:40;14.63;;;7.33;;
3085;SDS011;52812;48.960;9.108;2023-03-31T07:03:05;9.43;;;6.20;;
3085;SDS011;52812;48.960;9.108;2023-03-31T07:05:32;7.10;;;5.17;;
3085;SDS011;52812;48.960;9.108;2023-03-31T07:07:59;9.80;;;5.27;;
3085;SDS011;52812;48.960;9.108;2023-03-31T07:10:27;10.63;;;5.40;;
3085;SDS011;52812;48.960;9.108;2023-03-31T07:12:53;9.83;;;5.80;;
3085;SDS011;52812;48.960;9.108;2023-03-31T07:15:19;8.37;;;5.30;;
3085;SDS011;52812;48.960;9.108;2023-03-31T07:17:45;8.70;;;5.87;;
3085;SDS011;52812;48.960;9.108;2023-03-31T07:20:15;11.27;;;5.50;;
3085;SDS011;52812;48.960;9.108;2023-03-31T07:22:45;10.53;;;5.40;;
3085;SDS011;52812;48.960;9.108;2023-03-31T07:25:12;9.97;;;6.53;;
3085;SDS011;52812;48.960;9.108;2023-03-31T07:27:39;10.03;;;5.80;;
3085;SDS011;52812;48.960;9.108;2023-03-31T07:30:06;10.10;;;5.40;;
3085;SDS011;52812;48.960;9.108;2023-03-31T07:32:33;8.80;;;5.50;;
3085;SDS011;52812;48.960;9.108;2023-03-31T07:34:59;7.53;;;5.00;;
3085;SDS011;52812;48.960;9.108;2023-03-31T07:37:24;9.10;;;5.57;;
3085;SDS011;52812;48.960;9.108;2023-03-31T07:39:50;9.50;;;5.30;;
3085;SDS011;52812;48.960;9.108;2023-03-31T07:42:16;8.07;;;5.20;;
3085;SDS011;52812;48.960;9.108;2023-03-31T07:44:41;5.70;;;4.90;;
3085;SDS011;52812;48.960;9.108;2023-03-31T07:47:07;5.60;;;4.23;;
3085;SDS011;52812;48.960;9.108;2023-03-31T07:49:33;6.20;;;4.30;;
3085;SDS011;52812;48.960;9.108;2023-03-31T07:51:59;4.67;;;3.57;;
3085;SDS011;52812;48.960;9.108;2023-03-31T07:54:25;5.60;;;4.30;;
3085;SDS011;52812;48.960;9.108;2023-03-31T07:56:51;6.27;;;3.53;;
3085;SDS011;52812;48.960;9.108;2023-03-31T07:59:17;4.80;;;3.60;;
3085;SDS011;52812;48.960;9.108;2023-03-31T08:01:43;5.27;;;3.43;;
3085;SDS011;52812;48.960;9.108;2023-03-31T08:04:09;6.80;;;3.60;;
3085;SDS011;52812;48.960;9.108;2023-03-31T08:06:36;3.50;;;2.90;;
3085;SDS011;52812;48.960;9.108;2023-03-31T08:09:02;3.63;;;2.90;;
3085;SDS011;52812;48.960;9.108;2023-03-31T08:11:31;3.13;;;2.67;;
3085;SDS011;52812;48.960;9.108;2023-03-31T08:13:56;2.90;;;2.60;;
3085;SDS011;52812;48.960;9.108;2023-03-31T08:16:22;3.93;;;2.33;;
3085;SDS011;52812;48.960;9.108;2023-03-31T08:18:47;4.13;;;2.10;;
3085;SDS011;52812;48.960;9.108;2023-03-31T08:21:13;3.30;;;2.00;;
3085;SDS011;52812;48.960;9.108;2023-03-31T08:23:39;2.33;;;2.13;;
3085;SDS011;52812;48.960;9.108;2023-03-31T08:26:08;2.30;;;1.80;;
3085;SDS011;52812;48.960;9.108;2023-03-31T08:28:35;2.30;;;1.60;;
3085;SDS011;52812;48.960;9.108;2023-03-31T08:31:02;2.93;;;1.77;;
3085;SDS011;52812;48.960;9.108;2023-03-31T08:33:31;1.60;;;1.50;;
3085;SDS011;52812;48.960;9.108;2023-03-31T08:36:01;2.60;;;2.00;;
3085;SDS011;52812;48.960;9.108;2023-03-31T08:38:33;2.13;;;1.80;;
3085;SDS011;52812;48.960;9.108;2023-03-31T08:40:59;1.67;;;1.40;;
3085;SDS011;52812;48.960;9.108;2023-03-31T08:43:32;2.73;;;1.80;;
3085;SDS011;52812;48.960;9.108;2023-03-31T08:46:02;2.23;;;1.80;;
3085;SDS011;52812;48.960;9.108;2023-03-31T08:48:35;2.07;;;1.43;;
3085;SDS011;52812;48.960;9.108;2023-03-31T08:51:13;2.20;;;1.60;;
3085;SDS011;52812;48.960;9.108;2023-03-31T08:53:57;2.63;;;1.63;;
3085;SDS011;52812;48.960;9.108;2023-03-31T08:56:29;2.67;;;1.77;;
3085;SDS011;52812;48.960;9.108;2023-03-31T08:59:03;3.67;;;1.63;;
3085;SDS011;52812;48.960;9.108;2023-03-31T09:04:17;4.63;;;1.90;;
3085;SDS011;52812;48.960;9.108;2023-03-31T09:07:15;2.33;;;1.50;;
3085;SDS011;52812;48.960;9.108;2023-03-31T09:13:10;4.93;;;2.03;;
3085;SDS011;52812;48.960;9.108;2023-03-31T09:16:01;2.67;;;1.67;;
3085;SDS011;52812;48.960;9.108;2023-03-31T09:18:41;1.93;;;1.60;;
3085;SDS011;52812;48.960;9.108;2023-03-31T09:21:16;3.70;;;1.80;;
3085;SDS011;52812;48.960;9.108;2023-03-31T09:23:55;3.40;;;1.93;;
3085;SDS011;52812;48.960;9.108;2023-03-31T09:29:02;4.43;;;1.43;;
3085;SDS011;52812;48.960;9.108;2023-03-31T09:31:31;2.40;;;1.30;;
3085;SDS011;52812;48.960;9.108;2023-03-31T09:33:58;2.90;;;1.50;;
3085;SDS011;52812;48.960;9.108;2023-03-31T09:36:26;3.47;;;1.67;;
3085;SDS011;52812;48.960;9.108;2023-03-31T09:38:51;3.23;;;1.60;;
3085;SDS011;52812;48.960;9.108;2023-03-31T09:41:17;3.40;;;1.50;;
3085;SDS011;52812;48.960;9.108;2023-03-31T09:43:43;4.07;;;1.60;;
3085;SDS011;52812;48.960;9.108;2023-03-31T09:46:13;4.00;;;2.13;;
3085;SDS011;52812;48.960;9.108;2023-03-31T09:48:47;6.73;;;1.43;;
3085;SDS011;52812;48.960;9.108;2023-03-31T09:51:17;3.57;;;1.60;;
3085;SDS011;52812;48.960;9.108;2023-03-31T09:53:50;5.60;;;1.60;;
3085;SDS011;52812;48.960;9.108;2023-03-31T09:59:14;4.87;;;2.60;;
3085;SDS011;52812;48.960;9.108;2023-03-31T10:01:42;4.03;;;1.73;;
3085;SDS011;52812;48.960;9.108;2023-03-31T10:04:10;3.43;;;1.40;;
3085;SDS011;52812;48.960;9.108;2023-03-31T10:06:48;5.07;;;1.63;;
3085;SDS011;52812;48.960;9.108;2023-03-31T10:09:17;6.77;;;1.60;;
3085;SDS011;52812;48.960;9.108;2023-03-31T10:12:19;6.30;;;1.83;;
3085;SDS011;52812;48.960;9.108;2023-03-31T10:14:45;3.93;;;1.50;;
3085;SDS011;52812;48.960;9.108;2023-03-31T10:17:13;4.00;;;2.10;;
3085;SDS011;52812;48.960;9.108;2023-03-31T10:19:51;4.40;;;2.10;;
3085;SDS011;52812;48.960;9.108;2023-03-31T10:24:45;4.27;;;2.03;;
3085;SDS011;52812;48.960;9.108;2023-03-31T10:27:23;4.00;;;1.83;;
3085;SDS011;52812;48.960;9.108;2023-03-31T10:29:58;5.37;;;1.70;;
3085;SDS011;52812;48.960;9.108;2023-03-31T10:35:03;5.20;;;2.17;;
3085;SDS011;52812;48.960;9.108;2023-03-31T10:37:50;6.20;;;1.80;;
3085;SDS011;52812;48.960;9.108;2023-03-31T10:40:23;4.17;;;1.37;;
3085;SDS011;52812;48.960;9.108;2023-03-31T10:42:59;1.63;;;1.33;;
3085;SDS011;52812;48.960;9.108;2023-03-31T10:45:29;3.47;;;1.60;;
3085;SDS011;52812;48.960;9.108;2023-03-31T10:48:00;3.23;;;1.20;;
3085;SDS011;52812;48.960;9.108;2023-03-31T10:50:33;1.47;;;1.27;;
3085;SDS011;52812;48.960;9.108;2023-03-31T10:53:18;4.53;;;1.50;;
3085;SDS011;52812;48.960;9.108;2023-03-31T10:55:48;2.37;;;1.10;;
3085;SDS011;52812;48.960;9.108;2023-03-31T11:04:39;4.70;;;1.67;;
3085;SDS011;52812;48.960;9.108;2023-03-31T11:15:22;2.87;;;1.30;;
3085;SDS011;52812;48.960;9.108;2023-03-31T11:20:58;2.43;;;1.60;;
3085;SDS011;52812;48.960;9.108;2023-03-31T11:23:53;4.90;;;1.30;;
3085;SDS011;52812;48.960;9.108;2023-03-31T11:26:53;2.83;;;1.10;;
3085;SDS011;52812;48.960;9.108;2023-03-31T11:29:32;2.20;;;1.00;;
3085;SDS011;52812;48.960;9.108;2023-03-31T11:43:37;1.00;;;0.80;;
3085;SDS011;52812;48.960;9.108;2023-03-31T11:46:18;0.80;;;0.80;;
3085;SDS011;52812;48.960;9.108;2023-03-31T11:48:57;0.77;;;0.70;;
3085;SDS011;52812;48.960;9.108;2023-03-31T11:51:27;0.70;;;0.70;;
3085;SDS011;52812;48.960;9.108;2023-03-31T11:53:58;2.13;;;0.87;;
3085;SDS011;52812;48.960;9.108;2023-03-31T11:56:35;1.00;;;0.90;;
3085;SDS011;52812;48.960;9.108;2023-03-31T11:59:03;1.67;;;1.00;;
3085;SDS011;52812;48.960;9.108;2023-03-31T12:01:40;0.87;;;0.80;;
3085;SDS011;52812;48.960;9.108;2023-03-31T12:04:22;2.40;;;0.80;;
3085;SDS011;52812;48.960;9.108;2023-03-31T12:06:59;0.90;;;0.80;;
3085;SDS011;52812;48.960;9.108;2023-03-31T12:09:49;1.10;;;0.80;;
3085;SDS011;52812;48.960;9.108;2023-03-31T12:12:38;1.63;;;0.80;;
3085;SDS011;52812;48.960;9.108;2023-03-31T12:15:28;1.13;;;0.80;;
3085;SDS011;52812;48.960;9.108;2023-03-31T12:18:19;0.93;;;0.80;;
3085;SDS011;52812;48.960;9.108;2023-03-31T12:20:54;1.53;;;0.80;;
3085;SDS011;52812;48.960;9.108;2023-03-31T12:23:23;2.13;;;1.10;;
3085;SDS011;52812;48.960;9.108;2023-03-31T12:28:27;2.63;;;1.00;;
3085;SDS011;52812;48.960;9.108;2023-03-31T12:30:57;1.63;;;0.97;;
3085;SDS011;52812;48.960;9.108;2023-03-31T12:33:28;1.30;;;0.77;;
3085;SDS011;52812;48.960;9.108;2023-03-31T12:45:01;3.10;;;1.13;;
3085;SDS011;52812;48.960;9.108;2023-03-31T12:47:02;1.67;;;1.07;;
3085;SDS011;52812;48.960;9.108;2023-03-31T12:52:44;2.00;;;1.10;;
3085;SDS011;52812;48.960;9.108;2023-03-31T12:55:35;2.40;;;1.30;;
3085;SDS011;52812;48.960;9.108;2023-03-31T13:01:03;2.07;;;1.10;;
3085;SDS011;52812;48.960;9.108;2023-03-31T13:08:55;1.30;;;1.00;;
3085;SDS011;52812;48.960;9.108;2023-03-31T13:16:45;2.07;;;1.20;;
3085;SDS011;52812;48.960;9.108;2023-03-31T13:19:26;2.30;;;1.10;;
3085;SDS011;52812;48.960;9.108;2023-03-31T13:21:56;1.70;;;1.10;;
3085;SDS011;52812;48.960;9.108;2023-03-31T13:24:23;1.30;;;0.90;;
3085;SDS011;52812;48.960;9.108;2023-03-31T13:26:50;1.00;;;0.90;;
3085;SDS011;52812;48.960;9.108;2023-03-31T13:29:22;3.83;;;0.90;;
3085;SDS011;52812;48.960;9.108;2023-03-31T13:34:30;3.57;;;1.37;;
3085;SDS011;52812;48.960;9.108;2023-03-31T13:45:58;0.90;;;0.80;;
3085;SDS011;52812;48.960;9.108;2023-03-31T13:51:04;2.10;;;0.90;;
3085;SDS011;52812;48.960;9.108;2023-03-31T14:08:01;3.10;;;1.00;;
3085;SDS011;52812;48.960;9.108;2023-03-31T14:10:48;1.73;;;1.00;;
3085;SDS011;52812;48.960;9.108;2023-03-31T14:13:18;2.53;;;1.20;;
3085;SDS011;52812;48.960;9.108;2023-03-31T14:15:49;2.80;;;1.20;;
3085;SDS011;52812;48.960;9.108;2023-03-31T14:18:28;2.40;;;1.03;;
3085;SDS011;52812;48.960;9.108;2023-03-31T14:23:53;4.10;;;1.73;;
3085;SDS011;52812;48.960;9.108;2023-03-31T14:29:00;3.77;;;1.43;;
3085;SDS011;52812;48.960;9.108;2023-03-31T14:37:43;4.33;;;1.00;;
3085;SDS011;52812;48.960;9.108;2023-03-31T14:40:13;1.23;;;0.90;;
3085;SDS011;52812;48.960;9.108;2023-03-31T14:42:44;1.70;;;1.10;;
3085;SDS011;52812;48.960;9.108;2023-03-31T14:45:21;4.40;;;1.30;;
3085;SDS011;52812;48.960;9.108;2023-03-31T14:50:45;3.77;;;1.40;;
3085;SDS011;52812;48.960;9.108;2023-03-31T14:53:14;1.77;;;1.00;;
3085;SDS011;52812;48.960;9.108;2023-03-31T14:55:41;2.70;;;1.10;;
3085;SDS011;52812;48.960;9.108;2023-03-31T14:58:10;3.50;;;1.00;;
3085;SDS011;52812;48.960;9.108;2023-03-31T15:00:38;2.63;;;0.93;;
3085;SDS011;52812;48.960;9.108;2023-03-31T15:03:06;1.40;;;1.00;;
3085;SDS011;52812;48.960;9.108;2023-03-31T15:05:38;1.00;;;0.90;;
3085;SDS011;52812;48.960;9.108;2023-03-31T15:08:05;1.67;;;0.80;;
3085;SDS011;52812;48.960;9.108;2023-03-31T15:10:39;1.10;;;0.80;;
3085;SDS011;52812;48.960;9.108;2023-03-31T15:13:09;2.80;;;0.90;;
3085;SDS011;52812;48.960;9.108;2023-03-31T15:15:39;1.20;;;0.80;;
3085;SDS011;52812;48.960;9.108;2023-03-31T15:18:05;1.30;;;0.80;;
3085;SDS011;52812;48.960;9.108;2023-03-31T15:20:34;1.10;;;1.00;;
3085;SDS011;52812;48.960;9.108;2023-03-31T15:23:16;1.27;;;0.90;;
3085;SDS011;52812;48.960;9.108;2023-03-31T15:25:48;1.87;;;1.00;;
3085;SDS011;52812;48.960;9.108;2023-03-31T15:28:20;1.00;;;0.90;;
3085;SDS011;52812;48.960;9.108;2023-03-31T15:30:47;1.93;;;1.00;;
3085;SDS011;52812;48.960;9.108;2023-03-31T15:33:23;1.43;;;0.80;;
3085;SDS011;52812;48.960;9.108;2023-03-31T15:35:55;2.40;;;0.80;;
3085;SDS011;52812;48.960;9.108;2023-03-31T15:38:21;1.10;;;0.80;;
3085;SDS011;52812;48.960;9.108;2023-03-31T15:40:52;2.70;;;1.17;;
3085;SDS011;52812;48.960;9.108;2023-03-31T15:49:21;1.30;;;1.00;;
3085;SDS011;52812;48.960;9.108;2023-03-31T15:51:48;2.47;;;1.30;;
3085;SDS011;52812;48.960;9.108;2023-03-31T15:57:05;1.10;;;0.93;;
3085;SDS011;52812;48.960;9.108;2023-03-31T16:02:14;1.20;;;1.00;;
3085;SDS011;52812;48.960;9.108;2023-03-31T16:04:49;2.43;;;1.13;;
3085;SDS011;52812;48.960;9.108;2023-03-31T16:07:22;1.90;;;0.90;;
3085;SDS011;52812;48.960;9.108;2023-03-31T16:10:14;1.67;;;0.90;;
3085;SDS011;52812;48.960;9.108;2023-03-31T16:12:51;2.60;;;1.07;;
3085;SDS011;52812;48.960;9.108;2023-03-31T16:15:19;1.60;;;0.97;;
3085;SDS011;52812;48.960;9.108;2023-03-31T16:17:57;1.43;;;1.00;;
3085;SDS011;52812;48.960;9.108;2023-03-31T16:20:31;2.33;;;1.00;;
3085;SDS011;52812;48.960;9.108;2023-03-31T16:23:27;2.20;;;1.00;;
3085;SDS011;52812;48.960;9.108;2023-03-31T16:25:55;1.30;;;1.00;;
3085;SDS011;52812;48.960;9.108;2023-03-31T16:28:32;1.43;;;1.10;;
3085;SDS011;52812;48.960;9.108;2023-03-31T16:31:01;2.30;;;1.10;;
3085;SDS011;52812;48.960;9.108;2023-03-31T16:33:29;2.80;;;1.30;;
3085;SDS011;52812;48.960;9.108;2023-03-31T16:36:15;2.70;;;1.30;;
3085;SDS011;52812;48.960;9.108;2023-03-31T16:38:41;2.73;;;1.43;;
3085;SDS011;52812;48.960;9.108;2023-03-31T16:41:07;1.20;;;1.10;;
3085;SDS011;52812;48.960;9.108;2023-03-31T16:43:33;1.60;;;0.90;;
3085;SDS011;52812;48.960;9.108;2023-03-31T16:46:02;1.87;;;0.90;;
3085;SDS011;52812;48.960;9.108;2023-03-31T16:48:29;1.57;;;1.00;;
3085;SDS011;52812;48.960;9.108;2023-03-31T16:50:58;1.63;;;0.90;;
3085;SDS011;52812;48.960;9.108;2023-03-31T16:53:26;1.53;;;0.90;;
3085;SDS011;52812;48.960;9.108;2023-03-31T16:55:53;1.73;;;1.13;;
3085;SDS011;52812;48.960;9.108;2023-03-31T16:58:20;2.03;;;1.00;;
3085;SDS011;52812;48.960;9.108;2023-03-31T17:00:48;4.37;;;1.43;;
3085;SDS011;52812;48.960;9.108;2023-03-31T17:03:14;2.60;;;1.00;;
3085;SDS011;52812;48.960;9.108;2023-03-31T17:05:41;2.80;;;0.90;;
3085;SDS011;52812;48.960;9.108;2023-03-31T17:08:10;1.53;;;0.90;;
3085;SDS011;52812;48.960;9.108;2023-03-31T17:10:37;1.77;;;1.00;;
3085;SDS011;52812;48.960;9.108;2023-03-31T17:13:04;2.67;;;1.93;;
3085;SDS011;52812;48.960;9.108;2023-03-31T17:15:30;1.10;;;1.00;;
3085;SDS011;52812;48.960;9.108;2023-03-31T17:17:56;4.43;;;2.90;;
3085;SDS011;52812;48.960;9.108;2023-03-31T17:20:23;4.03;;;1.80;;
3085;SDS011;52812;48.960;9.108;2023-03-31T17:22:53;1.87;;;1.20;;
3085;SDS011;52812;48.960;9.108;2023-03-31T17:25:18;2.90;;;1.83;;
3085;SDS011;52812;48.960;9.108;2023-03-31T17:27:45;1.80;;;1.70;;
3085;SDS011;52812;48.960;9.108;2023-03-31T17:30:11;2.10;;;1.60;;
3085;SDS011;52812;48.960;9.108;2023-03-31T17:32:39;2.03;;;1.80;;
3085;SDS011;52812;48.960;9.108;2023-03-31T17:35:05;2.87;;;2.37;;
3085;SDS011;52812;48.960;9.108;2023-03-31T17:37:31;2.43;;;1.20;;
3085;SDS011;52812;48.960;9.108;2023-03-31T17:39:58;2.87;;;1.37;;
3085;SDS011;52812;48.960;9.108;2023-03-31T17:42:24;2.50;;;1.67;;
3085;SDS011;52812;48.960;9.108;2023-03-31T17:44:49;1.37;;;1.27;;
3085;SDS011;52812;48.960;9.108;2023-03-31T17:47:16;3.20;;;1.40;;
3085;SDS011;52812;48.960;9.108;2023-03-31T17:49:43;2.00;;;1.10;;
3085;SDS011;52812;48.960;9.108;2023-03-31T17:52:08;1.93;;;1.00;;
3085;SDS011;52812;48.960;9.108;2023-03-31T17:54:35;2.70;;;1.17;;
3085;SDS011;52812;48.960;9.108;2023-03-31T17:57:00;2.70;;;1.77;;
3085;SDS011;52812;48.960;9.108;2023-03-31T17:59:27;2.60;;;1.67;;
3085;SDS011;52812;48.960;9.108;2023-03-31T18:01:53;2.67;;;1.57;;
3085;SDS011;52812;48.960;9.108;2023-03-31T18:04:19;2.00;;;1.20;;
3085;SDS011;52812;48.960;9.108;2023-03-31T18:06:48;3.73;;;2.13;;
3085;SDS011;52812;48.960;9.108;2023-03-31T18:09:14;4.00;;;2.07;;
3085;SDS011;52812;48.960;9.108;2023-03-31T18:11:41;3.43;;;2.07;;